createdAt,value
2017-01-12T00:00:38.659Z,0
2017-01-12T00:01:38.648Z,0
2017-01-12T00:02:38.627Z,0
2017-01-12T00:03:38.612Z,0
2017-01-12T00:04:38.597Z,0
2017-01-12T00:05:38.604Z,0
2017-01-12T00:06:38.554Z,0
2017-01-12T00:07:38.549Z,0
2017-01-12T00:08:38.531Z,0
2017-01-12T00:09:38.509Z,0
2017-01-12T00:10:38.493Z,0
2017-01-12T00:11:38.472Z,0
2017-01-12T00:12:38.858Z,0
2017-01-12T00:13:38.449Z,0
2017-01-12T00:14:38.421Z,0
2017-01-12T00:15:38.412Z,0
2017-01-12T00:16:38.388Z,0
2017-01-12T00:17:38.376Z,0
2017-01-12T00:18:38.359Z,0
2017-01-12T00:19:38.339Z,0
2017-01-12T00:20:38.326Z,0
2017-01-12T00:21:38.307Z,0
2017-01-12T00:22:38.286Z,0
2017-01-12T00:23:38.275Z,0
2017-01-12T00:24:38.255Z,0
2017-01-12T00:25:38.241Z,0
2017-01-12T00:26:38.226Z,0
2017-01-12T00:27:38.206Z,0
2017-01-12T00:28:38.192Z,0
2017-01-12T00:29:38.175Z,0
2017-01-12T00:30:38.157Z,0
2017-01-12T00:31:38.146Z,0
2017-01-12T00:32:38.122Z,0
2017-01-12T00:33:38.106Z,0
2017-01-12T00:34:38.087Z,0
2017-01-12T00:35:38.075Z,0
2017-01-12T00:36:38.053Z,0
2017-01-12T00:37:38.048Z,0
2017-01-12T00:38:38.020Z,0
2017-01-12T00:39:38.004Z,0
2017-01-12T00:40:38.395Z,0
2017-01-12T00:41:37.968Z,0
2017-01-12T00:42:37.956Z,0
2017-01-12T00:43:37.935Z,0
2017-01-12T00:44:37.918Z,0
2017-01-12T00:45:37.925Z,0
2017-01-12T00:46:37.886Z,0
2017-01-12T00:47:37.870Z,0
2017-01-12T00:48:37.851Z,0
2017-01-12T00:49:37.835Z,0
2017-01-12T00:50:37.861Z,0
2017-01-12T00:51:37.805Z,0
2017-01-12T00:52:37.783Z,0
2017-01-12T00:53:37.771Z,0
2017-01-12T00:54:37.753Z,0
2017-01-12T00:55:37.742Z,0
2017-01-12T00:56:37.722Z,0
2017-01-12T00:57:37.703Z,0
2017-01-12T00:58:37.780Z,0
2017-01-12T00:59:38.039Z,0
2017-01-12T01:00:37.654Z,0
2017-01-12T01:01:37.638Z,0
2017-01-12T01:02:37.636Z,0
2017-01-12T01:03:37.599Z,0
2017-01-12T01:04:37.618Z,0
2017-01-12T01:05:37.568Z,0
2017-01-12T01:06:37.554Z,0
2017-01-12T01:07:37.539Z,0
2017-01-12T01:08:37.917Z,0
2017-01-12T01:09:37.506Z,0
2017-01-12T01:10:37.510Z,0
2017-01-12T01:11:37.470Z,0
2017-01-12T01:12:37.457Z,0
2017-01-12T01:13:37.442Z,0
2017-01-12T01:14:37.426Z,0
2017-01-12T01:15:37.405Z,0
2017-01-12T01:16:37.394Z,0
2017-01-12T01:17:37.368Z,0
2017-01-12T01:18:37.355Z,0
2017-01-12T01:19:37.337Z,0
2017-01-12T01:20:37.717Z,0
2017-01-12T01:21:37.307Z,0
2017-01-12T01:22:37.285Z,0
2017-01-12T01:23:37.274Z,0
2017-01-12T01:24:37.254Z,0
2017-01-12T01:25:37.243Z,0
2017-01-12T01:26:37.221Z,0
2017-01-12T01:27:37.206Z,0
2017-01-12T01:28:37.189Z,0
2017-01-12T01:29:37.178Z,0
2017-01-12T01:30:37.155Z,0
2017-01-12T01:31:37.144Z,0
2017-01-12T01:32:37.127Z,0
2017-01-12T01:33:37.104Z,0
2017-01-12T01:34:37.092Z,0
2017-01-12T01:35:37.074Z,0
2017-01-12T01:36:37.057Z,0
2017-01-12T01:37:37.042Z,0
2017-01-12T01:38:37.025Z,0
2017-01-12T01:39:37.012Z,0
2017-01-12T01:40:36.992Z,0
2017-01-12T01:41:36.979Z,0
2017-01-12T01:42:36.956Z,0
2017-01-12T01:43:36.951Z,0
2017-01-12T01:44:37.325Z,0
2017-01-12T01:45:36.910Z,0
2017-01-12T01:46:36.892Z,0
2017-01-12T01:47:36.876Z,0
2017-01-12T01:48:36.857Z,0
2017-01-12T01:49:36.843Z,0
2017-01-12T01:50:36.828Z,0
2017-01-12T01:51:36.809Z,0
2017-01-12T01:52:36.795Z,0
2017-01-12T01:53:36.783Z,0
2017-01-12T01:54:36.763Z,0
2017-01-12T01:55:36.746Z,0
2017-01-12T01:56:36.731Z,0
2017-01-12T01:57:36.742Z,0
2017-01-12T01:58:36.707Z,0
2017-01-12T01:59:36.682Z,0
2017-01-12T02:00:36.674Z,0
2017-01-12T02:01:36.649Z,0
2017-01-12T02:02:36.633Z,0
2017-01-12T02:03:36.649Z,0
2017-01-12T02:04:36.600Z,0
2017-01-12T02:05:36.586Z,0
2017-01-12T02:06:36.568Z,0
2017-01-12T02:07:36.547Z,0
2017-01-12T02:08:36.538Z,0
2017-01-12T02:09:36.518Z,0
2017-01-12T02:10:36.506Z,0
2017-01-12T02:11:36.515Z,0
2017-01-12T02:12:36.474Z,0
2017-01-12T02:13:36.467Z,0
2017-01-12T02:14:36.439Z,0
2017-01-12T02:15:36.419Z,0
2017-01-12T02:16:36.403Z,0
2017-01-12T02:17:36.391Z,0
2017-01-12T02:18:36.768Z,0
2017-01-12T02:19:36.359Z,0
2017-01-12T02:20:36.343Z,0
2017-01-12T02:21:36.320Z,0
2017-01-12T02:22:36.705Z,0
2017-01-12T02:23:36.291Z,0
2017-01-12T02:24:36.276Z,0
2017-01-12T02:25:36.255Z,0
2017-01-12T02:26:36.239Z,0
2017-01-12T02:27:36.225Z,0
2017-01-12T02:28:36.212Z,0
2017-01-12T02:29:36.192Z,0
2017-01-12T02:30:36.176Z,0
2017-01-12T02:31:36.169Z,0
2017-01-12T02:32:36.138Z,0
2017-01-12T02:33:36.127Z,0
2017-01-12T02:34:36.112Z,0
2017-01-12T02:35:36.123Z,0
2017-01-12T02:36:36.083Z,0
2017-01-12T02:37:36.067Z,0
2017-01-12T02:38:36.045Z,0
2017-01-12T02:39:36.032Z,0
2017-01-12T02:40:36.010Z,0
2017-01-12T02:41:35.999Z,0
2017-01-12T02:42:35.980Z,0
2017-01-12T02:43:35.967Z,0
2017-01-12T02:44:35.949Z,0
2017-01-12T02:45:35.932Z,0
2017-01-12T02:46:35.913Z,0
2017-01-12T02:47:35.902Z,0
2017-01-12T02:48:35.883Z,0
2017-01-12T02:49:35.868Z,0
2017-01-12T02:50:35.853Z,0
2017-01-12T02:51:35.833Z,0
2017-01-12T02:52:35.819Z,0
2017-01-12T02:53:35.802Z,0
2017-01-12T02:54:36.186Z,0
2017-01-12T02:55:35.769Z,0
2017-01-12T02:56:35.752Z,0
2017-01-12T02:57:35.744Z,0
2017-01-12T02:58:35.725Z,0
2017-01-12T02:59:35.931Z,0
2017-01-12T03:00:36.080Z,0
2017-01-12T03:01:36.069Z,0
2017-01-12T03:02:35.657Z,0
2017-01-12T03:03:35.637Z,0
2017-01-12T03:04:35.623Z,0
2017-01-12T03:05:35.605Z,0
2017-01-12T03:06:35.586Z,0
2017-01-12T03:07:35.571Z,0
2017-01-12T03:08:35.553Z,0
2017-01-12T03:09:35.539Z,0
2017-01-12T03:10:35.524Z,0
2017-01-12T03:11:35.506Z,0
2017-01-12T03:12:35.495Z,0
2017-01-12T03:13:35.472Z,0
2017-01-12T03:14:35.458Z,0
2017-01-12T03:15:35.445Z,0
2017-01-12T03:16:35.457Z,0
2017-01-12T03:17:35.406Z,0
2017-01-12T03:18:35.409Z,0
2017-01-12T03:19:35.377Z,0
2017-01-12T03:20:35.357Z,0
2017-01-12T03:21:35.342Z,0
2017-01-12T03:22:35.329Z,0
2017-01-12T03:23:35.311Z,0
2017-01-12T03:24:35.295Z,0
2017-01-12T03:25:35.278Z,0
2017-01-12T03:26:35.261Z,0
2017-01-12T03:27:35.243Z,0
2017-01-12T03:28:35.229Z,0
2017-01-12T03:29:35.214Z,0
2017-01-12T03:30:35.194Z,0
2017-01-12T03:31:35.186Z,0
2017-01-12T03:32:35.166Z,0
2017-01-12T03:33:35.143Z,0
2017-01-12T03:34:35.127Z,0
2017-01-12T03:35:35.113Z,0
2017-01-12T03:36:35.100Z,0
2017-01-12T03:37:35.075Z,0
2017-01-12T03:38:35.067Z,0
2017-01-12T03:39:35.048Z,0
2017-01-12T03:40:35.026Z,0
2017-01-12T03:41:35.017Z,0
2017-01-12T03:42:34.991Z,0
2017-01-12T03:43:34.975Z,0
2017-01-12T03:44:34.962Z,0
2017-01-12T03:45:34.946Z,0
2017-01-12T03:46:34.932Z,0
2017-01-12T03:47:34.910Z,0
2017-01-12T03:48:34.896Z,0
2017-01-12T03:49:34.883Z,0
2017-01-12T03:50:34.864Z,0
2017-01-12T03:51:34.845Z,0
2017-01-12T03:52:35.226Z,0
2017-01-12T03:53:34.813Z,0
2017-01-12T03:54:34.798Z,0
2017-01-12T03:55:34.781Z,0
2017-01-12T03:56:34.764Z,0
2017-01-12T03:57:34.752Z,0
2017-01-12T03:58:34.726Z,0
2017-01-12T03:59:34.711Z,0
2017-01-12T04:00:34.701Z,0
2017-01-12T04:01:34.680Z,0
2017-01-12T04:02:34.666Z,0
2017-01-12T04:03:34.654Z,0
2017-01-12T04:04:34.630Z,0
2017-01-12T04:05:34.617Z,0
2017-01-12T04:06:34.604Z,0
2017-01-12T04:07:34.584Z,0
2017-01-12T04:08:34.567Z,0
2017-01-12T04:09:34.548Z,0
2017-01-12T04:10:34.534Z,0
2017-01-12T04:11:34.513Z,0
2017-01-12T04:12:34.495Z,0
2017-01-12T04:13:34.880Z,0
2017-01-12T04:14:34.467Z,0
2017-01-12T04:15:34.449Z,0
2017-01-12T04:16:34.437Z,0
2017-01-12T04:17:34.415Z,0
2017-01-12T04:18:34.413Z,0
2017-01-12T04:19:34.389Z,0
2017-01-12T04:20:34.366Z,0
2017-01-12T04:21:34.749Z,0
2017-01-12T04:22:34.333Z,0
2017-01-12T04:23:34.317Z,0
2017-01-12T04:24:34.300Z,0
2017-01-12T04:25:34.292Z,0
2017-01-12T04:26:34.271Z,0
2017-01-12T04:27:34.249Z,0
2017-01-12T04:28:34.636Z,0
2017-01-12T04:29:34.225Z,0
2017-01-12T04:30:34.210Z,0
2017-01-12T04:31:34.186Z,0
2017-01-12T04:32:34.173Z,0
2017-01-12T04:33:34.176Z,0
2017-01-12T04:34:34.133Z,0
2017-01-12T04:35:34.124Z,0
2017-01-12T04:36:34.099Z,0
2017-01-12T04:37:34.084Z,0
2017-01-12T04:38:34.064Z,0
2017-01-12T04:39:34.055Z,0
2017-01-12T04:40:34.036Z,0
2017-01-12T04:41:34.030Z,0
2017-01-12T04:42:34.007Z,0
2017-01-12T04:43:33.986Z,0
2017-01-12T04:44:33.971Z,0
2017-01-12T04:45:33.949Z,0
2017-01-12T04:46:33.977Z,0
2017-01-12T04:47:33.914Z,0
2017-01-12T04:48:33.899Z,0
2017-01-12T04:49:33.881Z,0
2017-01-12T04:50:33.874Z,0
2017-01-12T04:51:33.854Z,0
2017-01-12T04:52:33.836Z,0
2017-01-12T04:53:33.818Z,0
2017-01-12T04:54:33.796Z,0
2017-01-12T04:55:33.782Z,0
2017-01-12T04:56:33.767Z,0
2017-01-12T04:57:33.755Z,0
2017-01-12T04:58:33.734Z,0
2017-01-12T04:59:33.716Z,0
2017-01-12T05:00:33.701Z,0
2017-01-12T05:01:33.684Z,0
2017-01-12T05:02:33.665Z,0
2017-01-12T05:03:33.661Z,0
2017-01-12T05:04:33.631Z,0
2017-01-12T05:05:33.614Z,0
2017-01-12T05:06:33.596Z,0
2017-01-12T05:07:33.574Z,0
2017-01-12T05:08:33.562Z,0
2017-01-12T05:09:33.555Z,0
2017-01-12T05:10:33.528Z,0
2017-01-12T05:11:33.519Z,0
2017-01-12T05:12:33.493Z,0
2017-01-12T05:13:33.482Z,0
2017-01-12T05:14:33.461Z,0
2017-01-12T05:15:33.446Z,0
2017-01-12T05:16:33.436Z,0
2017-01-12T05:17:33.410Z,0
2017-01-12T05:18:33.397Z,0
2017-01-12T05:19:33.379Z,0
2017-01-12T05:20:33.369Z,0
2017-01-12T05:21:33.356Z,0
2017-01-12T05:22:33.335Z,0
2017-01-12T05:23:33.311Z,0
2017-01-12T05:24:33.295Z,0
2017-01-12T05:25:33.277Z,0
2017-01-12T05:26:33.262Z,0
2017-01-12T05:27:33.246Z,0
2017-01-12T05:28:33.233Z,0
2017-01-12T05:29:33.213Z,0
2017-01-12T05:30:33.199Z,0
2017-01-12T05:31:33.180Z,0
2017-01-12T05:32:33.191Z,0
2017-01-12T05:33:33.142Z,0
2017-01-12T05:34:33.129Z,0
2017-01-12T05:35:33.114Z,0
2017-01-12T05:36:33.510Z,0
2017-01-12T05:37:33.109Z,0
2017-01-12T05:38:33.064Z,0
2017-01-12T05:39:33.046Z,0
2017-01-12T05:40:33.026Z,0
2017-01-12T05:41:33.015Z,0
2017-01-12T05:42:32.993Z,0
2017-01-12T05:43:32.980Z,0
2017-01-12T05:44:32.959Z,0
2017-01-12T05:45:32.965Z,0
2017-01-12T05:46:32.926Z,0
2017-01-12T05:47:32.912Z,0
2017-01-12T05:48:32.893Z,0
2017-01-12T05:49:32.879Z,0
2017-01-12T05:50:32.860Z,0
2017-01-12T05:51:32.842Z,0
2017-01-12T05:52:32.822Z,0
2017-01-12T05:53:32.814Z,0
2017-01-12T05:54:32.797Z,0
2017-01-12T05:55:32.775Z,0
2017-01-12T05:56:32.759Z,0
2017-01-12T05:57:32.741Z,0
2017-01-12T05:58:32.729Z,0
2017-01-12T05:59:32.707Z,0
2017-01-12T06:00:32.688Z,0
2017-01-12T06:01:32.675Z,0
2017-01-12T06:02:32.655Z,0
2017-01-12T06:03:32.646Z,0
2017-01-12T06:04:32.624Z,0
2017-01-12T06:05:32.606Z,0
2017-01-12T06:06:32.591Z,0
2017-01-12T06:07:32.578Z,0
2017-01-12T06:08:32.555Z,0
2017-01-12T06:09:32.545Z,0
2017-01-12T06:10:32.524Z,0
2017-01-12T06:11:32.510Z,0
2017-01-12T06:12:32.489Z,0
2017-01-12T06:13:32.469Z,0
2017-01-12T06:14:32.466Z,0
2017-01-12T06:15:32.440Z,0
2017-01-12T06:16:32.427Z,0
2017-01-12T06:17:32.408Z,0
2017-01-12T06:18:32.388Z,0
2017-01-12T06:19:32.374Z,0
2017-01-12T06:20:32.355Z,0
2017-01-12T06:21:32.349Z,0
2017-01-12T06:22:32.326Z,0
2017-01-12T06:23:32.304Z,0
2017-01-12T06:24:32.283Z,0
2017-01-12T06:25:32.272Z,0
2017-01-12T06:26:32.260Z,0
2017-01-12T06:27:32.238Z,0
2017-01-12T06:28:32.221Z,0
2017-01-12T06:29:32.209Z,0
2017-01-12T06:30:32.585Z,0
2017-01-12T06:31:32.587Z,0
2017-01-12T06:32:32.155Z,0
2017-01-12T06:33:32.146Z,0
2017-01-12T06:34:32.124Z,0
2017-01-12T06:35:32.136Z,0
2017-01-12T06:36:32.081Z,0
2017-01-12T06:37:32.465Z,0
2017-01-12T06:38:32.051Z,0
2017-01-12T06:39:32.040Z,0
2017-01-12T06:40:32.018Z,0
2017-01-12T06:41:32.004Z,0
2017-01-12T06:42:32.020Z,0
2017-01-12T06:43:31.968Z,0
2017-01-12T06:44:31.949Z,0
2017-01-12T06:45:31.941Z,0
2017-01-12T06:46:31.914Z,0
2017-01-12T06:47:31.902Z,0
2017-01-12T06:48:31.899Z,0
2017-01-12T06:49:31.878Z,0
2017-01-12T06:50:31.854Z,0
2017-01-12T06:51:31.842Z,0
2017-01-12T06:52:31.819Z,0
2017-01-12T06:53:31.847Z,0
2017-01-12T06:54:32.178Z,0
2017-01-12T06:55:31.774Z,0
2017-01-12T06:56:31.744Z,0
2017-01-12T06:57:31.729Z,0
2017-01-12T06:58:31.719Z,0
2017-01-12T06:59:31.727Z,0
2017-01-12T07:00:31.699Z,0
2017-01-12T07:01:32.055Z,0
2017-01-12T07:02:31.646Z,0
2017-01-12T07:03:31.629Z,0
2017-01-12T07:04:31.607Z,0
2017-01-12T07:05:31.600Z,5
2017-01-12T07:06:31.583Z,5
2017-01-12T07:07:31.565Z,5
2017-01-12T07:08:31.553Z,5
2017-01-12T07:09:31.571Z,5
2017-01-12T07:10:31.513Z,5
2017-01-12T07:11:32.206Z,5
2017-01-12T07:12:31.480Z,5
2017-01-12T07:13:31.494Z,10
2017-01-12T07:14:31.440Z,10
2017-01-12T07:15:31.429Z,10
2017-01-12T07:16:31.412Z,10
2017-01-12T07:17:31.443Z,10
2017-01-12T07:18:31.379Z,10
2017-01-12T07:19:31.360Z,10
2017-01-12T07:20:31.343Z,15
2017-01-12T07:21:31.321Z,15
2017-01-12T07:22:31.315Z,15
2017-01-12T07:23:31.288Z,15
2017-01-12T07:24:31.274Z,15
2017-01-12T07:25:31.262Z,15
2017-01-12T07:26:31.241Z,15
2017-01-12T07:27:31.225Z,15
2017-01-12T07:28:31.208Z,15
2017-01-12T07:29:31.196Z,20
2017-01-12T07:30:31.182Z,25
2017-01-12T07:31:31.157Z,25
2017-01-12T07:32:31.549Z,25
2017-01-12T07:33:31.123Z,25
2017-01-12T07:34:31.109Z,25
2017-01-12T07:35:31.097Z,30
2017-01-12T07:36:31.105Z,35
2017-01-12T07:37:31.057Z,35
2017-01-12T07:38:31.048Z,40
2017-01-12T07:39:31.029Z,40
2017-01-12T07:40:31.010Z,35
2017-01-12T07:41:30.997Z,35
2017-01-12T07:42:30.973Z,35
2017-01-12T07:43:30.959Z,35
2017-01-12T07:44:30.948Z,35
2017-01-12T07:45:30.936Z,35
2017-01-12T07:46:30.930Z,35
2017-01-12T07:47:30.895Z,40
2017-01-12T07:48:30.880Z,45
2017-01-12T07:49:30.856Z,45
2017-01-12T07:50:30.846Z,50
2017-01-12T07:51:30.832Z,50
2017-01-12T07:52:30.813Z,55
2017-01-12T07:53:30.797Z,50
2017-01-12T07:54:30.786Z,50
2017-01-12T07:55:30.772Z,55
2017-01-12T07:56:30.744Z,65
2017-01-12T07:57:31.132Z,70
2017-01-12T07:58:30.717Z,85
2017-01-12T07:59:30.698Z,85
2017-01-12T08:00:30.682Z,90
2017-01-12T08:01:30.661Z,90
2017-01-12T08:02:30.654Z,80
2017-01-12T08:03:30.629Z,75
2017-01-12T08:04:30.618Z,65
2017-01-12T08:05:30.596Z,70
2017-01-12T08:06:30.583Z,65
2017-01-12T08:07:30.572Z,55
2017-01-12T08:08:30.553Z,55
2017-01-12T08:09:30.539Z,60
2017-01-12T08:10:30.535Z,60
2017-01-12T08:11:30.497Z,50
2017-01-12T08:12:30.481Z,50
2017-01-12T08:13:30.467Z,45
2017-01-12T08:14:30.455Z,40
2017-01-12T08:15:30.435Z,40
2017-01-12T08:16:30.422Z,45
2017-01-12T08:17:30.403Z,45
2017-01-12T08:18:30.396Z,50
2017-01-12T08:19:30.369Z,55
2017-01-12T08:20:30.366Z,60
2017-01-12T08:21:30.337Z,70
2017-01-12T08:22:30.321Z,75
2017-01-12T08:23:30.306Z,80
2017-01-12T08:24:30.293Z,75
2017-01-12T08:25:30.304Z,70
2017-01-12T08:26:30.261Z,70
2017-01-12T08:27:30.239Z,70
2017-01-12T08:28:30.224Z,75
2017-01-12T08:29:30.211Z,80
2017-01-12T08:30:30.201Z,80
2017-01-12T08:31:30.179Z,75
2017-01-12T08:32:30.166Z,65
2017-01-12T08:33:30.150Z,55
2017-01-12T08:34:30.128Z,55
2017-01-12T08:35:30.119Z,70
2017-01-12T08:36:30.130Z,90
2017-01-12T08:37:30.085Z,115
2017-01-12T08:38:30.062Z,120
2017-01-12T08:39:30.051Z,115
2017-01-12T08:40:30.038Z,110
2017-01-12T08:41:30.018Z,105
2017-01-12T08:42:30.001Z,105
2017-01-12T08:43:29.981Z,105
2017-01-12T08:44:29.971Z,105
2017-01-12T08:45:29.951Z,105
2017-01-12T08:46:29.939Z,105
2017-01-12T08:47:29.920Z,105
2017-01-12T08:48:29.905Z,115
2017-01-12T08:49:29.885Z,115
2017-01-12T08:50:29.874Z,120
2017-01-12T08:51:29.855Z,125
2017-01-12T08:52:29.842Z,135
2017-01-12T08:53:29.847Z,130
2017-01-12T08:54:29.815Z,120
2017-01-12T08:55:30.088Z,115
2017-01-12T08:56:29.781Z,115
2017-01-12T08:57:29.771Z,120
2017-01-12T08:58:30.156Z,130
2017-01-12T08:59:29.729Z,135
2017-01-12T09:00:29.721Z,140
2017-01-12T09:01:29.697Z,135
2017-01-12T09:02:29.687Z,130
2017-01-12T09:03:29.670Z,135
2017-01-12T09:04:29.657Z,140
2017-01-12T09:05:29.631Z,145
2017-01-12T09:06:29.622Z,155
2017-01-12T09:07:29.634Z,160
2017-01-12T09:08:29.590Z,165
2017-01-12T09:09:29.572Z,170
2017-01-12T09:10:29.564Z,170
2017-01-12T09:11:29.544Z,170
2017-01-12T09:12:29.532Z,170
2017-01-12T09:13:29.513Z,170
2017-01-12T09:14:29.494Z,170
2017-01-12T09:15:29.512Z,175
2017-01-12T09:16:29.462Z,185
2017-01-12T09:17:29.450Z,190
2017-01-12T09:18:29.432Z,195
2017-01-12T09:19:29.419Z,210
2017-01-12T09:20:29.404Z,215
2017-01-12T09:21:29.397Z,215
2017-01-12T09:22:29.368Z,205
2017-01-12T09:23:29.370Z,195
2017-01-12T09:24:29.343Z,175
2017-01-12T09:25:29.339Z,180
2017-01-12T09:26:29.742Z,185
2017-01-12T09:27:29.330Z,170
2017-01-12T09:28:29.683Z,165
2017-01-12T09:29:29.263Z,160
2017-01-12T09:30:29.650Z,145
2017-01-12T09:31:29.236Z,135
2017-01-12T09:32:29.220Z,130
2017-01-12T09:33:29.206Z,115
2017-01-12T09:34:29.194Z,105
2017-01-12T09:35:29.206Z,105
2017-01-12T09:36:29.160Z,105
2017-01-12T09:37:29.537Z,110
2017-01-12T09:38:29.128Z,105
2017-01-12T09:39:29.114Z,110
2017-01-12T09:40:29.103Z,120
2017-01-12T09:41:29.083Z,130
2017-01-12T09:42:29.062Z,135
2017-01-12T09:43:29.461Z,135
2017-01-12T09:44:29.038Z,125
2017-01-12T09:45:29.022Z,120
2017-01-12T09:46:28.999Z,115
2017-01-12T09:47:28.985Z,115
2017-01-12T09:48:28.971Z,120
2017-01-12T09:49:28.956Z,135
2017-01-12T09:50:28.942Z,140
2017-01-12T09:51:28.929Z,155
2017-01-12T09:52:28.910Z,160
2017-01-12T09:53:28.896Z,180
2017-01-12T09:54:28.880Z,180
2017-01-12T09:55:28.872Z,200
2017-01-12T09:56:28.853Z,215
2017-01-12T09:57:28.840Z,220
2017-01-12T09:58:28.820Z,215
2017-01-12T09:59:28.831Z,210
2017-01-12T10:00:28.783Z,205
2017-01-12T10:01:28.775Z,200
2017-01-12T10:02:28.754Z,190
2017-01-12T10:03:28.749Z,185
2017-01-12T10:04:28.724Z,175
2017-01-12T10:05:28.706Z,165
2017-01-12T10:06:28.706Z,165
2017-01-12T10:07:28.732Z,155
2017-01-12T10:08:28.659Z,145
2017-01-12T10:09:28.642Z,140
2017-01-12T10:10:28.630Z,150
2017-01-12T10:11:28.620Z,165
2017-01-12T10:12:28.604Z,155
2017-01-12T10:13:28.587Z,150
2017-01-12T10:14:28.589Z,150
2017-01-12T10:15:28.556Z,170
2017-01-12T10:16:29.084Z,195
2017-01-12T10:17:28.532Z,220
2017-01-12T10:18:28.513Z,230
2017-01-12T10:19:28.497Z,230
2017-01-12T10:20:28.482Z,230
2017-01-12T10:21:28.467Z,240
2017-01-12T10:22:28.455Z,245
2017-01-12T10:23:28.436Z,245
2017-01-12T10:24:28.822Z,245
2017-01-12T10:25:28.403Z,270
2017-01-12T10:26:28.391Z,305
2017-01-12T10:27:28.380Z,300
2017-01-12T10:28:28.361Z,285
2017-01-12T10:29:28.340Z,245
2017-01-12T10:30:28.335Z,210
2017-01-12T10:31:28.314Z,190
2017-01-12T10:32:28.700Z,175
2017-01-12T10:33:28.278Z,170
2017-01-12T10:34:28.671Z,150
2017-01-12T10:35:28.255Z,130
2017-01-12T10:36:28.239Z,120
2017-01-12T10:37:28.232Z,120
2017-01-12T10:38:28.220Z,125
2017-01-12T10:39:28.201Z,125
2017-01-12T10:40:28.180Z,130
2017-01-12T10:41:28.171Z,125
2017-01-12T10:42:28.150Z,125
2017-01-12T10:43:28.136Z,130
2017-01-12T10:44:28.536Z,120
2017-01-12T10:45:28.122Z,130
2017-01-12T10:46:28.091Z,145
2017-01-12T10:47:28.076Z,130
2017-01-12T10:48:28.182Z,135
2017-01-12T10:49:28.044Z,125
2017-01-12T10:50:28.031Z,135
2017-01-12T10:51:28.010Z,140
2017-01-12T10:52:28.022Z,125
2017-01-12T10:53:27.994Z,120
2017-01-12T10:54:27.966Z,120
2017-01-12T10:55:28.114Z,120
2017-01-12T10:56:27.948Z,130
2017-01-12T10:57:27.924Z,145
2017-01-12T10:58:28.089Z,135
2017-01-12T10:59:28.230Z,125
2017-01-12T11:00:27.878Z,125
2017-01-12T11:01:27.866Z,145
2017-01-12T11:02:27.859Z,165
2017-01-12T11:03:27.831Z,195
2017-01-12T11:04:27.817Z,235
2017-01-12T11:05:27.797Z,200
2017-01-12T11:06:28.004Z,145
2017-01-12T11:07:27.765Z,125
2017-01-12T11:08:27.755Z,115
2017-01-12T11:09:27.765Z,115
2017-01-12T11:10:27.719Z,120
2017-01-12T11:11:27.948Z,120
2017-01-12T11:12:27.950Z,125
2017-01-12T11:13:27.671Z,130
2017-01-12T11:14:27.658Z,130
2017-01-12T11:15:27.661Z,140
2017-01-12T11:16:27.628Z,145
2017-01-12T11:17:27.857Z,155
2017-01-12T11:18:27.920Z,140
2017-01-12T11:19:27.579Z,130
2017-01-12T11:20:27.559Z,130
2017-01-12T11:21:27.556Z,155
2017-01-12T11:22:27.705Z,130
2017-01-12T11:23:27.720Z,100
2017-01-12T11:24:27.503Z,105
2017-01-12T11:25:27.485Z,105
2017-01-12T11:26:27.470Z,100
2017-01-12T11:27:27.546Z,95
2017-01-12T11:28:27.583Z,95
2017-01-12T11:29:28.277Z,95
2017-01-12T11:30:27.413Z,100
2017-01-12T11:31:27.447Z,95
2017-01-12T11:32:27.427Z,95
2017-01-12T11:33:27.501Z,100
2017-01-12T11:34:27.344Z,100
2017-01-12T11:35:27.322Z,100
2017-01-12T11:36:27.316Z,100
2017-01-12T11:37:27.294Z,125
2017-01-12T11:38:27.282Z,135
2017-01-12T11:39:27.262Z,135
2017-01-12T11:40:27.253Z,125
2017-01-12T11:41:27.239Z,135
2017-01-12T11:42:27.215Z,170
2017-01-12T11:43:27.358Z,170
2017-01-12T11:44:27.185Z,155
2017-01-12T11:45:27.320Z,160
2017-01-12T11:46:27.151Z,175
2017-01-12T11:47:27.141Z,165
2017-01-12T11:48:27.116Z,130
2017-01-12T11:49:27.141Z,150
2017-01-12T11:50:27.089Z,135
2017-01-12T11:51:27.070Z,145
2017-01-12T11:52:27.060Z,135
2017-01-12T11:53:27.044Z,140
2017-01-12T11:54:27.027Z,140
2017-01-12T11:55:27.017Z,140
2017-01-12T11:56:26.997Z,135
2017-01-12T11:57:26.981Z,125
2017-01-12T11:58:27.365Z,125
2017-01-12T11:59:26.951Z,130
2017-01-12T12:00:27.465Z,130
2017-01-12T12:01:27.176Z,125
2017-01-12T12:02:27.683Z,125
2017-01-12T12:03:26.884Z,125
2017-01-12T12:04:26.876Z,120
2017-01-12T12:05:26.856Z,135
2017-01-12T12:06:26.998Z,125
2017-01-12T12:07:26.820Z,125
2017-01-12T12:08:26.811Z,130
2017-01-12T12:09:26.858Z,140
2017-01-12T12:10:26.776Z,155
2017-01-12T12:11:26.766Z,150
2017-01-12T12:12:26.748Z,160
2017-01-12T12:13:26.745Z,160
2017-01-12T12:14:26.715Z,175
2017-01-12T12:15:26.698Z,175
2017-01-12T12:16:26.709Z,200
2017-01-12T12:17:26.700Z,205
2017-01-12T12:18:26.657Z,215
2017-01-12T12:19:26.639Z,210
2017-01-12T12:20:26.615Z,210
2017-01-12T12:21:26.770Z,190
2017-01-12T12:22:26.787Z,200
2017-01-12T12:23:26.570Z,215
2017-01-12T12:24:26.564Z,195
2017-01-12T12:25:26.549Z,175
2017-01-12T12:26:26.541Z,170
2017-01-12T12:27:26.511Z,170
2017-01-12T12:28:26.528Z,155
2017-01-12T12:29:26.485Z,150
2017-01-12T12:30:26.503Z,180
2017-01-12T12:31:26.453Z,170
2017-01-12T12:32:26.437Z,155
2017-01-12T12:33:26.426Z,165
2017-01-12T12:34:26.402Z,150
2017-01-12T12:35:26.389Z,160
2017-01-12T12:36:26.377Z,155
2017-01-12T12:37:26.494Z,160
2017-01-12T12:38:26.374Z,175
2017-01-12T12:39:26.330Z,180
2017-01-12T12:40:26.584Z,180
2017-01-12T12:41:26.300Z,195
2017-01-12T12:42:26.284Z,200
2017-01-12T12:43:26.273Z,185
2017-01-12T12:44:26.286Z,185
2017-01-12T12:45:26.458Z,185
2017-01-12T12:46:26.234Z,200
2017-01-12T12:47:26.350Z,200
2017-01-12T12:48:26.196Z,200
2017-01-12T12:49:26.183Z,215
2017-01-12T12:50:26.185Z,230
2017-01-12T12:51:26.153Z,255
2017-01-12T12:52:26.149Z,220
2017-01-12T12:53:26.126Z,220
2017-01-12T12:54:26.107Z,225
2017-01-12T12:55:26.258Z,225
2017-01-12T12:56:26.476Z,230
2017-01-12T12:57:26.073Z,215
2017-01-12T12:58:26.054Z,210
2017-01-12T12:59:26.034Z,210
2017-01-12T13:00:26.022Z,210
2017-01-12T13:01:26.010Z,200
2017-01-12T13:02:25.990Z,195
2017-01-12T13:03:25.984Z,200
2017-01-12T13:04:26.365Z,200
2017-01-12T13:05:26.356Z,205
2017-01-12T13:06:25.937Z,205
2017-01-12T13:07:25.942Z,210
2017-01-12T13:08:25.907Z,190
2017-01-12T13:09:25.889Z,180
2017-01-12T13:10:25.906Z,175
2017-01-12T13:11:25.866Z,160
2017-01-12T13:12:25.851Z,155
2017-01-12T13:13:25.833Z,150
2017-01-12T13:14:25.822Z,145
2017-01-12T13:15:25.811Z,135
2017-01-12T13:16:25.792Z,130
2017-01-12T13:17:26.171Z,125
2017-01-12T13:18:25.761Z,125
2017-01-12T13:19:25.749Z,130
2017-01-12T13:20:25.738Z,135
2017-01-12T13:21:25.721Z,135
2017-01-12T13:22:25.704Z,130
2017-01-12T13:23:26.091Z,125
2017-01-12T13:24:25.678Z,130
2017-01-12T13:25:25.663Z,125
2017-01-12T13:26:25.656Z,120
2017-01-12T13:27:25.633Z,135
2017-01-12T13:28:25.641Z,135
2017-01-12T13:29:26.002Z,130
2017-01-12T13:30:25.589Z,125
2017-01-12T13:31:25.576Z,115
2017-01-12T13:32:25.590Z,115
2017-01-12T13:33:25.680Z,105
2017-01-12T13:34:25.529Z,105
2017-01-12T13:35:25.519Z,100
2017-01-12T13:36:25.498Z,95
2017-01-12T13:37:25.484Z,100
2017-01-12T13:38:25.468Z,105
2017-01-12T13:39:25.464Z,105
2017-01-12T13:40:25.468Z,110
2017-01-12T13:41:25.459Z,120
2017-01-12T13:42:25.420Z,110
2017-01-12T13:43:25.791Z,110
2017-01-12T13:44:25.384Z,105
2017-01-12T13:45:25.393Z,105
2017-01-12T13:46:25.355Z,105
2017-01-12T13:47:25.348Z,110
2017-01-12T13:48:25.326Z,100
2017-01-12T13:49:25.306Z,100
2017-01-12T13:50:25.290Z,90
2017-01-12T13:51:25.274Z,85
2017-01-12T13:52:25.272Z,85
2017-01-12T13:53:25.249Z,80
2017-01-12T13:54:25.237Z,75
2017-01-12T13:55:25.219Z,85
2017-01-12T13:56:25.199Z,75
2017-01-12T13:57:25.314Z,65
2017-01-12T13:58:25.178Z,70
2017-01-12T13:59:25.160Z,75
2017-01-12T14:00:25.146Z,85
2017-01-12T14:01:25.125Z,85
2017-01-12T14:02:25.130Z,85
2017-01-12T14:03:25.094Z,85
2017-01-12T14:04:25.087Z,85
2017-01-12T14:05:25.072Z,75
2017-01-12T14:06:25.059Z,75
2017-01-12T14:07:25.035Z,75
2017-01-12T14:08:25.025Z,65
2017-01-12T14:09:25.002Z,65
2017-01-12T14:10:24.994Z,70
2017-01-12T14:11:24.977Z,70
2017-01-12T14:12:25.362Z,65
2017-01-12T14:13:24.945Z,70
2017-01-12T14:14:24.931Z,70
2017-01-12T14:15:24.917Z,70
2017-01-12T14:16:24.896Z,70
2017-01-12T14:17:25.285Z,70
2017-01-12T14:18:24.879Z,70
2017-01-12T14:19:24.854Z,70
2017-01-12T14:20:24.840Z,65